Time;durP1;ratioP1;P1;durP2;ratioP2;P2;SDS_P1;SDS_P2;PMS_P1;PMS_P2;Temp;Humidity;BMP_temperature;BMP_pressure;BME280_temperature;BME280_humidity;BME280_pressure;Samples;Min_cycle;Max_cycle;Signal;HPM_P1;HPM_P2
2021/09/29 00:00:18;;;;;;;11.00;9.30;;;12.10;99.90;;;;;;6181866;23;20032;-89
2021/09/29 00:03:08;;;;;;;16.45;10.98;;;12.10;99.90;;;;;;6183908;23;20194;-90
2021/09/29 00:05:58;;;;;;;15.25;9.88;;;12.10;99.90;;;;;;6184477;23;20033;-88
2021/09/29 00:08:46;;;;;;;13.95;10.75;;;12.10;99.90;;;;;;6182545;23;20111;-88
2021/09/29 00:11:35;;;;;;;14.05;10.93;;;12.10;99.90;;;;;;6182894;23;20104;-89
2021/09/29 00:14:24;;;;;;;12.88;10.43;;;12.10;99.90;;;;;;6185215;23;20100;-89
2021/09/29 00:17:13;;;;;;;13.10;9.93;;;12.00;99.90;;;;;;6181349;23;20033;-89
2021/09/29 00:20:03;;;;;;;13.10;10.18;;;12.00;99.90;;;;;;6184393;23;20025;-89
2021/09/29 00:22:50;;;;;;;14.82;9.57;;;12.00;99.90;;;;;;6182323;23;20091;-91
2021/09/29 00:25:38;;;;;;;12.30;9.23;;;11.90;99.90;;;;;;6183749;23;20029;-88
2021/09/29 00:28:25;;;;;;;13.70;9.00;;;11.80;99.90;;;;;;6183405;23;20021;-89
2021/09/29 00:31:25;;;;;;;13.00;9.07;;;11.70;99.90;;;;;;6182275;23;20029;-89
2021/09/29 00:34:15;;;;;;;12.25;8.80;;;11.70;99.90;;;;;;6182459;23;20123;-88
2021/09/29 00:37:03;;;;;;;11.30;8.82;;;11.60;99.90;;;;;;6181062;23;20753;-89
2021/09/29 00:39:53;;;;;;;14.68;10.18;;;11.60;99.90;;;;;;6183009;23;20393;-90
2021/09/29 00:42:40;;;;;;;13.52;11.23;;;11.60;99.90;;;;;;6180990;23;20025;-89
2021/09/29 00:45:32;;;;;;;14.20;10.95;;;11.60;99.90;;;;;;6183807;23;20138;-88
2021/09/29 00:48:22;;;;;;;17.52;10.95;;;11.60;99.90;;;;;;6184274;23;20421;-88
2021/09/29 00:51:10;;;;;;;14.43;11.05;;;11.60;99.90;;;;;;6181582;23;20111;-89
2021/09/29 00:53:58;;;;;;;16.85;10.65;;;11.60;99.90;;;;;;6183907;23;20395;-88
2021/09/29 00:56:51;;;;;;;17.98;10.85;;;11.50;99.90;;;;;;6182781;23;20087;-90
2021/09/29 00:59:38;;;;;;;13.57;10.27;;;11.40;99.90;;;;;;6183508;23;20131;-90
2021/09/29 01:02:26;;;;;;;13.80;10.32;;;11.40;99.90;;;;;;6181469;23;20025;-89
2021/09/29 01:05:14;;;;;;;14.10;9.52;;;11.30;99.90;;;;;;6182678;23;20108;-88
2021/09/29 01:08:08;;;;;;;14.38;9.88;;;11.30;99.90;;;;;;6183869;23;20088;-89
2021/09/29 01:11:27;;;;;;;16.60;10.40;;;11.30;99.90;;;;;;6180435;23;20079;-89
2021/09/29 01:14:38;;;;;;;22.77;9.95;;;11.40;99.90;;;;;;6184284;23;20120;-89
2021/09/29 01:17:27;;;;;;;13.95;10.05;;;11.40;99.90;;;;;;6182838;23;20025;-88
2021/09/29 01:20:21;;;;;;;13.18;9.88;;;11.50;99.90;;;;;;6182721;23;20087;-89
2021/09/29 01:23:09;;;;;;;17.77;9.80;;;11.50;99.90;;;;;;6182895;23;20021;-89
2021/09/29 01:26:04;;;;;;;14.25;10.05;;;11.50;99.90;;;;;;6180951;23;20455;-89
2021/09/29 01:28:56;;;;;;;15.50;10.18;;;11.50;99.90;;;;;;6182583;23;20052;-89
2021/09/29 01:31:44;;;;;;;13.32;9.98;;;11.40;99.90;;;;;;6180486;23;20051;-90
2021/09/29 01:34:31;;;;;;;16.83;10.30;;;11.40;99.90;;;;;;6180685;23;20744;-88
2021/09/29 01:37:21;;;;;;;15.73;11.48;;;11.40;99.90;;;;;;6183758;23;20031;-89
2021/09/29 01:40:11;;;;;;;20.55;11.38;;;11.40;99.90;;;;;;6181643;23;20025;-88
2021/09/29 01:42:58;;;;;;;19.23;10.65;;;11.40;99.90;;;;;;6182307;23;20056;-89
2021/09/29 01:45:48;;;;;;;14.40;10.95;;;11.50;99.90;;;;;;6181194;23;20119;-90
2021/09/29 01:48:50;;;;;;;14.57;10.63;;;11.40;99.90;;;;;;6183445;23;20024;-88
2021/09/29 01:51:47;;;;;;;15.88;9.80;;;11.40;99.90;;;;;;6181993;23;20029;-88
2021/09/29 01:54:41;;;;;;;15.25;11.55;;;11.30;99.90;;;;;;6182520;23;20087;-89
2021/09/29 01:57:36;;;;;;;17.67;10.70;;;11.30;99.90;;;;;;6182188;23;20048;-89
2021/09/29 02:00:25;;;;;;;16.85;11.25;;;11.20;99.90;;;;;;6183969;23;20483;-89
2021/09/29 02:03:20;;;;;;;19.58;11.02;;;11.20;99.90;;;;;;6182244;23;20159;-88
2021/09/29 02:06:09;;;;;;;14.43;11.40;;;11.20;99.90;;;;;;6182262;23;20400;-90
2021/09/29 02:08:57;;;;;;;14.73;11.63;;;11.20;99.90;;;;;;6181664;23;20056;-88
2021/09/29 02:11:45;;;;;;;15.30;11.43;;;11.20;99.90;;;;;;6180856;23;20511;-89
2021/09/29 02:14:32;;;;;;;19.83;11.13;;;11.20;99.90;;;;;;6181800;23;20057;-89
2021/09/29 02:17:20;;;;;;;22.10;11.05;;;11.10;99.90;;;;;;6181078;23;20032;-88
2021/09/29 02:20:08;;;;;;;16.73;11.30;;;11.10;99.90;;;;;;6161696;23;20188;-90
2021/09/29 02:22:57;;;;;;;13.68;10.98;;;11.00;99.90;;;;;;6182110;23;20170;-89
2021/09/29 02:25:47;;;;;;;18.85;11.40;;;11.00;99.90;;;;;;6181283;23;20115;-89
2021/09/29 02:28:34;;;;;;;17.80;11.48;;;11.00;99.90;;;;;;6183043;23;20083;-90
2021/09/29 02:31:21;;;;;;;16.27;11.80;;;11.00;99.90;;;;;;6181834;23;20072;-90
2021/09/29 02:34:09;;;;;;;19.17;11.68;;;11.00;99.90;;;;;;6160476;23;20116;-88
2021/09/29 02:36:56;;;;;;;21.15;12.13;;;11.00;99.90;;;;;;6181267;23;20071;-90
2021/09/29 02:39:44;;;;;;;24.05;12.95;;;11.00;99.90;;;;;;6179373;23;20109;-88
2021/09/29 02:42:33;;;;;;;19.33;12.93;;;11.00;99.90;;;;;;6181536;23;20439;-88
2021/09/29 02:45:21;;;;;;;20.63;13.05;;;11.00;99.90;;;;;;6182066;23;20110;-88
2021/09/29 02:48:08;;;;;;;20.77;12.88;;;10.90;99.90;;;;;;6188841;23;20056;-89
2021/09/29 02:50:55;;;;;;;23.35;14.20;;;10.90;99.90;;;;;;6199650;23;20083;-91
2021/09/29 02:53:43;;;;;;;24.48;13.60;;;11.00;99.90;;;;;;6196272;23;20084;-90
2021/09/29 02:56:30;;;;;;;23.52;14.63;;;10.90;99.90;;;;;;6196086;23;20025;-88
2021/09/29 02:59:18;;;;;;;22.80;13.90;;;10.90;99.90;;;;;;6202893;23;20049;-88
2021/09/29 03:02:09;;;;;;;26.90;17.17;;;11.00;99.90;;;;;;6200661;23;20020;-88
2021/09/29 03:04:57;;;;;;;22.70;15.73;;;11.00;99.90;;;;;;6206814;23;20320;-87
2021/09/29 03:07:44;;;;;;;24.02;14.30;;;11.10;99.90;;;;;;6205724;23;20019;-90
2021/09/29 03:10:31;;;;;;;24.50;14.57;;;11.10;99.90;;;;;;6207378;23;20040;-88
2021/09/29 03:13:18;;;;;;;22.08;14.85;;;11.20;99.90;;;;;;6204218;23;20076;-90
2021/09/29 03:16:06;;;;;;;22.50;14.75;;;11.20;99.90;;;;;;6196346;23;20028;-90
2021/09/29 03:18:55;;;;;;;20.25;15.02;;;11.20;99.90;;;;;;6201164;23;20061;-89
2021/09/29 03:21:44;;;;;;;22.65;14.85;;;11.10;99.90;;;;;;6195548;23;20083;-91
2021/09/29 03:24:32;;;;;;;20.40;14.50;;;11.10;99.90;;;;;;6191311;23;20018;-89
2021/09/29 03:27:19;;;;;;;23.08;14.75;;;11.10;99.90;;;;;;6202139;23;20021;-90
2021/09/29 03:30:07;;;;;;;25.05;14.40;;;11.10;99.90;;;;;;6198320;23;20024;-90
2021/09/29 03:32:54;;;;;;;26.42;14.48;;;11.00;99.90;;;;;;6191023;23;20025;-89
2021/09/29 03:35:45;;;;;;;21.70;14.07;;;11.00;99.90;;;;;;6187983;23;20029;-90
2021/09/29 03:38:35;;;;;;;18.30;13.40;;;11.00;99.90;;;;;;6189165;23;20404;-91
2021/09/29 03:41:24;;;;;;;24.38;14.18;;;11.00;99.90;;;;;;6186815;23;20027;-91
2021/09/29 03:44:11;;;;;;;25.80;13.40;;;11.00;99.90;;;;;;6185148;23;20061;-90
2021/09/29 03:46:59;;;;;;;21.35;14.05;;;10.90;99.90;;;;;;6187245;23;20099;-90
2021/09/29 03:49:46;;;;;;;21.75;13.50;;;11.00;99.90;;;;;;6183497;23;20044;-89
2021/09/29 03:52:33;;;;;;;21.60;13.30;;;11.00;99.90;;;;;;6183901;23;20119;-90
2021/09/29 03:55:22;;;;;;;18.33;12.07;;;11.10;99.90;;;;;;6184875;23;20676;-90
2021/09/29 03:58:09;;;;;;;18.83;11.90;;;11.00;99.90;;;;;;6183014;23;20033;-90
2021/09/29 04:00:56;;;;;;;25.10;12.90;;;11.00;99.90;;;;;;6182646;23;20316;-90
2021/09/29 04:03:47;;;;;;;21.85;12.00;;;11.00;99.90;;;;;;6183274;23;20382;-89
2021/09/29 04:06:35;;;;;;;20.55;11.60;;;11.10;99.90;;;;;;6183369;23;20172;-91
2021/09/29 04:09:22;;;;;;;17.25;11.02;;;11.10;99.90;;;;;;6182745;23;20432;-91
2021/09/29 04:12:10;;;;;;;20.95;10.77;;;11.10;99.90;;;;;;6182624;23;20031;-91
2021/09/29 04:15:00;;;;;;;20.95;11.85;;;11.10;99.90;;;;;;6183929;23;20032;-90
2021/09/29 04:17:50;;;;;;;15.38;11.38;;;11.10;99.90;;;;;;6182380;23;20196;-89
2021/09/29 04:20:39;;;;;;;16.67;10.85;;;11.10;99.90;;;;;;6185329;23;20032;-90
2021/09/29 04:23:27;;;;;;;19.60;12.10;;;11.10;99.90;;;;;;6182114;23;20029;-91
2021/09/29 04:26:15;;;;;;;25.13;12.90;;;11.10;99.90;;;;;;6181982;23;20440;-91
2021/09/29 04:29:05;;;;;;;17.98;11.30;;;11.10;99.90;;;;;;6182811;23;20021;-91
2021/09/29 04:31:53;;;;;;;19.67;11.73;;;11.10;99.90;;;;;;6183232;23;20084;-91
2021/09/29 04:34:45;;;;;;;15.13;11.55;;;11.10;99.90;;;;;;6185579;23;20035;-88
2021/09/29 04:37:32;;;;;;;24.23;11.90;;;11.00;99.90;;;;;;6189057;23;20025;-89
2021/09/29 04:40:20;;;;;;;25.30;12.38;;;11.00;99.90;;;;;;6182411;23;20055;-89
2021/09/29 04:43:09;;;;;;;16.40;11.65;;;11.00;99.90;;;;;;6184351;23;20385;-89
2021/09/29 05:12:27;;;;;;;24.67;14.02;;;10.80;99.90;;;;;;6151460;23;20037;-88
2021/09/29 05:15:14;;;;;;;20.52;13.70;;;10.70;99.90;;;;;;6164084;23;20048;-89
2021/09/29 05:18:01;;;;;;;28.63;14.20;;;10.70;99.90;;;;;;6181871;23;20087;-87
2021/09/29 05:20:49;;;;;;;26.52;14.75;;;10.70;99.90;;;;;;6182984;23;20053;-88
2021/09/29 05:23:37;;;;;;;27.35;15.93;;;10.60;99.90;;;;;;6181537;23;20021;-86
2021/09/29 05:26:27;;;;;;;22.92;15.05;;;10.60;99.90;;;;;;6180192;23;20174;-90
2021/09/29 05:29:19;;;;;;;22.00;14.82;;;10.60;99.90;;;;;;6185423;23;20131;-91
2021/09/29 05:32:07;;;;;;;22.37;15.03;;;10.50;99.90;;;;;;6182979;23;20079;-90
2021/09/29 05:34:54;;;;;;;24.48;14.70;;;10.50;99.90;;;;;;6187279;23;20024;-90
2021/09/29 05:37:42;;;;;;;25.70;15.40;;;10.50;99.90;;;;;;6184851;23;20104;-90
2021/09/29 05:40:30;;;;;;;19.08;13.68;;;10.50;99.90;;;;;;6182430;23;20510;-89
2021/09/29 05:43:21;;;;;;;22.73;13.90;;;10.40;99.90;;;;;;6184802;23;20056;-91
2021/09/29 05:46:09;;;;;;;25.13;13.93;;;10.40;99.90;;;;;;6180542;23;20041;-91
2021/09/29 05:48:57;;;;;;;20.08;14.25;;;10.40;99.90;;;;;;6184403;23;20304;-90
2021/09/29 05:51:47;;;;;;;23.10;13.27;;;10.40;99.90;;;;;;6182704;23;20385;-90
2021/09/29 05:54:34;;;;;;;24.55;14.32;;;10.50;99.90;;;;;;6185507;23;20116;-90
2021/09/29 05:57:24;;;;;;;19.30;13.50;;;10.40;99.90;;;;;;6186891;23;20138;-91
2021/09/29 06:00:12;;;;;;;21.30;12.82;;;10.50;99.90;;;;;;6183489;23;20025;-90
2021/09/29 06:03:01;;;;;;;22.25;13.25;;;10.50;99.90;;;;;;6183330;23;20356;-90
2021/09/29 06:05:49;;;;;;;18.13;12.95;;;10.60;99.90;;;;;;6181598;23;20035;-90
2021/09/29 06:08:36;;;;;;;22.05;12.40;;;10.60;99.90;;;;;;6185068;23;20029;-93
2021/09/29 06:11:23;;;;;;;22.40;12.05;;;10.70;99.90;;;;;;6185367;23;20081;-93
2021/09/29 06:14:14;;;;;;;20.85;11.48;;;10.80;99.90;;;;;;6198131;23;20033;-93
2021/09/29 06:17:20;;;;;;;17.70;11.13;;;10.80;99.90;;;;;;6192947;23;20116;-93
2021/09/29 06:20:08;;;;;;;16.92;11.02;;;10.90;99.90;;;;;;6194010;23;20083;-93
2021/09/29 06:22:55;;;;;;;20.30;10.82;;;10.90;99.90;;;;;;6193163;23;20021;-92
2021/09/29 06:25:47;;;;;;;10.95;9.38;;;11.10;99.90;;;;;;6190318;23;20029;-91
2021/09/29 06:28:40;;;;;;;12.07;8.77;;;11.20;99.90;;;;;;6187961;23;20107;-92
2021/09/29 06:31:30;;;;;;;18.40;8.95;;;11.30;99.90;;;;;;6197811;23;20085;-92
2021/09/29 07:04:20;;;;;;;6.25;4.13;;;12.90;99.90;;;;;;5754422;24;19937;-93
2021/09/29 07:08:04;;;;;;;8.70;4.50;;;13.00;99.90;;;;;;5750984;24;20016;-93
2021/09/29 07:11:10;;;;;;;8.38;3.88;;;13.10;99.90;;;;;;5987145;23;20149;-93
2021/09/29 07:14:02;;;;;;;8.15;3.90;;;13.40;99.90;;;;;;6008462;23;20039;-93
2021/09/29 07:16:52;;;;;;;8.32;3.03;;;13.50;99.90;;;;;;6104575;23;20034;-93
2021/09/29 07:19:41;;;;;;;8.70;3.30;;;13.70;99.90;;;;;;6123797;23;20118;-93
2021/09/29 07:22:33;;;;;;;4.65;2.42;;;13.80;99.90;;;;;;6123220;23;20339;-94
2021/09/29 07:25:35;;;;;;;7.68;2.80;;;13.90;99.90;;;;;;6136786;23;20036;-93
2021/09/29 07:28:50;;;;;;;;;;;;;;;;;;;;;
2021/09/29 07:35:38;;;;;;;4.37;2.30;;;14.10;99.90;;;;;;6176345;23;20025;-92
2021/09/29 07:38:33;;;;;;;5.68;2.20;;;14.00;99.90;;;;;;6185442;23;20056;-91
2021/09/29 07:41:30;;;;;;;4.30;1.80;;;14.20;99.90;;;;;;6183988;23;20032;-91
2021/09/29 07:44:30;;;;;;;4.07;1.70;;;14.40;99.90;;;;;;6183621;23;20080;-92
2021/09/29 07:47:34;;;;;;;5.70;2.17;;;14.30;99.90;;;;;;6182047;23;20021;-90
2021/09/29 07:50:31;;;;;;;4.53;1.70;;;14.30;99.90;;;;;;6161981;23;20025;-89
2021/09/29 07:53:21;;;;;;;6.97;2.00;;;14.30;99.90;;;;;;6185671;23;20040;-88
2021/09/29 07:56:13;;;;;;;4.00;1.80;;;14.50;99.90;;;;;;6183943;23;20675;-88
2021/09/29 07:59:05;;;;;;;7.65;2.20;;;14.70;99.90;;;;;;6181943;23;20024;-92
2021/09/29 08:01:52;;;;;;;3.47;1.73;;;15.00;99.90;;;;;;6162807;23;20055;-90
2021/09/29 08:04:45;;;;;;;4.55;1.80;;;15.30;99.90;;;;;;6185259;23;20421;-91
2021/09/29 08:07:32;;;;;;;3.80;1.85;;;15.70;99.90;;;;;;6183922;23;20048;-91
2021/09/29 08:10:23;;;;;;;6.57;1.92;;;16.20;99.90;;;;;;6183629;23;20125;-91
2021/09/29 08:13:15;;;;;;;3.35;1.80;;;16.40;99.90;;;;;;6183893;23;20021;-92
2021/09/29 08:16:03;;;;;;;3.95;1.50;;;16.50;99.90;;;;;;6183498;23;20025;-91
2021/09/29 08:18:50;;;;;;;4.38;1.40;;;16.80;99.90;;;;;;6183696;23;20044;-92
2021/09/29 08:21:39;;;;;;;4.55;1.30;;;17.00;99.90;;;;;;6184666;23;20427;-88
2021/09/29 08:24:36;;;;;;;3.13;1.35;;;17.10;99.90;;;;;;6181519;23;20111;-89
2021/09/29 08:27:35;;;;;;;3.55;1.27;;;17.10;99.90;;;;;;6183906;23;20021;-88
2021/09/29 08:39:58;;;;;;;5.32;1.20;;;17.00;99.90;;;;;;6134572;23;20060;-89
2021/09/29 08:43:12;;;;;;;5.00;1.20;;;17.30;99.90;;;;;;6183909;23;20087;-89
2021/09/29 08:46:07;;;;;;;6.45;1.20;;;17.80;99.90;;;;;;6183787;23;20025;-91
2021/09/29 08:49:08;;;;;;;3.60;1.17;;;17.80;99.90;;;;;;6184992;23;20037;-92
2021/09/29 08:52:09;;;;;;;5.32;1.30;;;18.00;99.90;;;;;;6183628;23;20488;-90
2021/09/29 08:55:28;;;;;;;8.18;1.23;;;17.90;99.50;;;;;;6184885;23;20025;-90
2021/09/29 09:17:40;;;;;;;5.90;1.48;;;19.70;91.90;;;;;;6187209;23;20029;-91
2021/09/29 09:20:29;;;;;;;3.83;1.00;;;20.20;90.00;;;;;;6185264;23;20074;-91
2021/09/29 09:23:21;;;;;;;5.28;1.45;;;20.50;90.00;;;;;;6181869;23;20068;-90
2021/09/29 09:26:20;;;;;;;4.00;0.80;;;20.60;87.70;;;;;;6185385;23;20107;-91
2021/09/29 09:29:10;;;;;;;2.53;1.20;;;20.10;86.30;;;;;;6184674;23;20062;-92
2021/09/29 09:32:08;;;;;;;7.30;1.10;;;19.80;88.90;;;;;;6183508;23;20420;-92
2021/09/29 09:35:04;;;;;;;5.00;1.08;;;19.80;85.90;;;;;;6186429;23;20500;-93
2021/09/29 09:37:56;;;;;;;5.78;1.33;;;19.70;87.30;;;;;;6185012;23;20084;-95
2021/09/29 09:40:43;;;;;;;3.60;0.90;;;19.00;88.50;;;;;;6186504;23;20095;-92
2021/09/29 09:43:31;;;;;;;2.15;0.88;;;19.30;89.40;;;;;;6184439;23;20104;-93
2021/09/29 09:46:21;;;;;;;2.78;0.93;;;19.20;83.80;;;;;;6186170;23;20029;-90
2021/09/29 09:49:11;;;;;;;3.95;1.10;;;18.10;84.90;;;;;;6182336;23;20092;-91
2021/09/29 09:52:01;;;;;;;6.60;1.27;;;17.90;86.30;;;;;;6182919;23;20092;-92
2021/09/29 09:54:51;;;;;;;5.72;1.20;;;17.90;86.20;;;;;;6182997;23;20099;-89
2021/09/29 09:57:40;;;;;;;3.63;1.00;;;17.70;86.90;;;;;;6182499;23;20028;-92
2021/09/29 10:00:32;;;;;;;7.85;1.30;;;18.00;85.80;;;;;;6181505;23;20441;-93
2021/09/29 10:03:27;;;;;;;4.65;0.93;;;18.30;84.40;;;;;;6182644;23;20417;-92
2021/09/29 10:06:19;;;;;;;3.92;1.20;;;18.50;83.40;;;;;;6181347;23;20079;-93
2021/09/29 10:09:21;;;;;;;5.45;1.10;;;18.50;82.20;;;;;;6184256;23;20517;-92
2021/09/29 10:15:28;;;;;;;4.60;1.20;;;19.80;80.90;;;;;;6186970;23;20114;-92
2021/09/29 10:27:45;;;;;;;2.92;1.17;;;18.10;85.10;;;;;;6139709;23;20091;-92
2021/09/29 10:34:36;;;;;;;3.38;1.00;;;17.20;88.00;;;;;;6108074;23;20109;-93
2021/09/29 10:37:50;;;;;;;2.95;1.20;;;16.90;90.20;;;;;;6183144;23;20032;-92
2021/09/29 10:47:13;;;;;;;4.43;1.40;;;16.40;92.30;;;;;;6186281;23;20492;-91
2021/09/29 11:27:48;;;;;;;1.73;0.60;;;22.30;68.70;;;;;;6193308;23;20103;-93
2021/09/29 11:30:49;;;;;;;6.22;1.20;;;21.80;66.90;;;;;;6192996;23;20025;-93
2021/09/29 12:10:36;;;;;;;4.30;0.88;;;19.20;73.10;;;;;;6184285;23;20031;-92
2021/09/29 12:13:46;;;;;;;3.45;0.68;;;19.40;73.40;;;;;;6183607;23;20087;-91
2021/09/29 12:16:36;;;;;;;6.30;1.10;;;20.50;69.30;;;;;;6182434;23;20051;-90
2021/09/29 12:19:33;;;;;;;3.45;0.90;;;20.70;68.20;;;;;;6185912;23;20116;-91
2021/09/29 12:22:22;;;;;;;5.82;0.88;;;22.00;64.80;;;;;;6184280;23;20041;-90
2021/09/29 12:25:16;;;;;;;2.53;0.80;;;22.40;62.20;;;;;;6185600;23;20048;-91
2021/09/29 12:31:47;;;;;;;3.55;1.00;;;22.40;61.50;;;;;;6166390;23;20021;-89
2021/09/29 12:34:47;;;;;;;2.58;0.80;;;22.20;61.00;;;;;;6187209;23;20347;-91
2021/09/29 12:37:34;;;;;;;4.65;0.90;;;22.10;61.70;;;;;;6188668;23;20080;-92
2021/09/29 12:40:33;;;;;;;6.20;1.00;;;22.30;61.20;;;;;;6197064;23;20107;-90
2021/09/29 12:43:22;;;;;;;3.92;0.70;;;22.80;59.70;;;;;;6201240;23;20029;-90
2021/09/29 12:46:17;;;;;;;5.55;0.77;;;22.80;59.60;;;;;;6193071;23;20082;-90
2021/09/29 12:49:13;;;;;;;5.40;1.00;;;22.20;60.50;;;;;;6190195;23;20036;-91
2021/09/29 12:52:14;;;;;;;8.02;1.00;;;21.80;63.40;;;;;;6188597;23;20024;-92
2021/09/29 12:55:04;;;;;;;4.30;1.05;;;21.80;61.30;;;;;;6187419;23;20373;-91
2021/09/29 12:58:03;;;;;;;5.32;0.90;;;22.30;61.50;;;;;;6188369;23;20039;-90
2021/09/29 13:00:50;;;;;;;6.80;1.45;;;22.50;66.90;;;;;;6185318;23;20083;-88
2021/09/29 13:03:41;;;;;;;3.70;0.98;;;22.60;67.10;;;;;;6184337;23;20467;-91
2021/09/29 13:06:30;;;;;;;;;;;22.70;66.70;;;;;;6188498;23;20341;-90
2021/09/29 13:09:17;;;;;;;3.58;0.70;;;21.60;67.90;;;;;;6186958;23;19936;-89
2021/09/29 13:12:10;;;;;;;3.75;1.15;;;20.80;69.90;;;;;;6167505;23;20073;-91
2021/09/29 13:14:58;;;;;;;7.30;1.10;;;19.70;73.90;;;;;;6190740;23;20029;-91
2021/09/29 13:17:49;;;;;;;5.93;1.13;;;18.90;90.70;;;;;;6173154;23;20131;-92
2021/09/29 13:20:40;;;;;;;2.33;1.02;;;17.70;96.70;;;;;;6191043;23;20024;-90
2021/09/29 13:23:32;;;;;;;2.88;0.90;;;17.10;99.90;;;;;;6187094;23;20033;-91
2021/09/29 13:39:22;;;;;;;9.95;1.92;;;14.40;99.90;;;;;;6175826;23;20026;-91
2021/09/29 13:42:11;;;;;;;6.47;1.60;;;14.20;99.90;;;;;;6156655;23;20022;-90
2021/09/29 13:45:09;;;;;;;7.75;1.95;;;13.90;99.90;;;;;;6134089;23;20112;-92
2021/09/29 13:48:11;;;;;;;9.85;2.47;;;13.70;99.90;;;;;;6171413;23;20068;-91
2021/09/29 13:51:01;;;;;;;6.60;1.85;;;13.70;99.90;;;;;;6136843;23;20688;-91
2021/09/29 13:53:48;;;;;;;7.22;2.53;;;13.60;99.90;;;;;;6160348;23;20045;-92
2021/09/29 13:56:58;;;;;;;7.10;1.80;;;13.70;99.90;;;;;;6134706;23;20025;-93
2021/09/29 14:31:33;;;;;;;1.95;1.00;;;13.50;99.90;;;;;;6070941;23;20262;-93
2021/09/29 14:34:34;;;;;;;3.00;0.73;;;13.10;99.90;;;;;;5965601;23;20035;-92
2021/09/29 14:38:14;;;;;;;1.58;0.98;;;13.00;99.90;;;;;;6010597;23;20032;-91
2021/09/29 14:41:49;;;;;;;4.22;0.85;;;13.00;99.90;;;;;;5912368;24;20025;-92
2021/09/29 14:44:43;;;;;;;0.70;0.60;;;12.90;99.90;;;;;;5927086;23;20105;-89
2021/09/29 14:52:34;;;;;;;1.60;0.63;;;12.60;99.90;;;;;;5955389;24;20025;-93
2021/09/29 14:55:29;;;;;;;1.63;0.75;;;12.50;99.90;;;;;;5955189;23;20028;-91
2021/09/29 14:58:53;;;;;;;1.85;0.68;;;12.40;99.90;;;;;;5959260;24;20024;-92
2021/09/29 15:01:49;;;;;;;2.30;0.50;;;12.20;99.90;;;;;;6029960;23;20055;-90
2021/09/29 15:04:40;;;;;;;0.75;0.75;;;12.10;99.90;;;;;;6090382;23;20093;-87
2021/09/29 15:07:28;;;;;;;1.17;0.60;;;12.00;99.90;;;;;;6154076;23;20046;-88
2021/09/29 15:10:18;;;;;;;0.75;0.50;;;11.90;99.90;;;;;;6153850;23;20032;-89
2021/09/29 15:13:07;;;;;;;0.73;0.60;;;11.80;99.90;;;;;;6152639;23;20021;-88
2021/09/29 15:16:07;;;;;;;0.73;0.60;;;11.70;99.90;;;;;;6154202;23;20030;-90
2021/09/29 15:49:50;;;;;;;1.10;0.70;;;12.10;99.90;;;;;;6166707;23;20099;-88
2021/09/29 15:52:22;;;;;;;1.10;0.70;;;12.90;99.90;;;;;;6165912;23;20106;-88
2021/09/29 16:00:58;;;;;;;2.45;0.98;;;16.40;99.90;;;;;;6185807;23;20120;-92
2021/09/29 16:03:57;;;;;;;;;;;17.30;99.90;;;;;;6185687;23;20236;-90
2021/09/29 16:07:07;;;;;;;1.40;0.85;;;16.70;99.90;;;;;;6186650;23;20334;-92
2021/09/29 16:19:28;;;;;;;2.05;0.80;;;12.90;99.90;;;;;;6202128;23;20048;-92
2021/09/29 16:31:19;;;;;;;1.48;0.80;;;11.90;99.90;;;;;;6184284;23;20107;-88
2021/09/29 16:34:17;;;;;;;1.83;0.90;;;11.90;99.90;;;;;;6163174;23;20084;-88
2021/09/29 16:37:05;;;;;;;1.90;1.40;;;11.80;99.90;;;;;;6182943;23;20031;-90
2021/09/29 16:39:52;;;;;;;3.00;0.95;;;11.80;99.90;;;;;;6183876;23;20033;-88
2021/09/29 16:42:39;;;;;;;2.50;1.10;;;11.80;99.90;;;;;;6182913;23;20029;-90
2021/09/29 16:45:28;;;;;;;3.50;1.05;;;11.70;99.90;;;;;;6184821;23;20038;-88
2021/09/29 16:48:18;;;;;;;2.53;1.10;;;11.70;99.90;;;;;;6185550;23;20049;-88
2021/09/29 16:54:24;;;;;;;6.68;2.50;;;11.70;99.90;;;;;;6170375;23;20052;-90
2021/09/29 16:57:15;;;;;;;1.88;1.40;;;11.70;99.90;;;;;;6179630;23;20052;-87
2021/09/29 17:00:09;;;;;;;1.85;0.93;;;11.60;99.90;;;;;;6185200;23;20041;-91
2021/09/29 17:02:57;;;;;;;4.05;1.60;;;11.60;99.90;;;;;;6184980;23;20141;-90
2021/09/29 17:05:44;;;;;;;2.85;1.88;;;11.60;99.90;;;;;;6185479;23;20036;-90
2021/09/29 17:08:32;;;;;;;1.58;1.45;;;11.50;99.90;;;;;;6184844;23;20084;-89
2021/09/29 17:11:19;;;;;;;2.47;1.30;;;11.50;99.90;;;;;;6184744;23;20320;-90
2021/09/29 17:14:07;;;;;;;2.58;0.85;;;11.50;99.90;;;;;;6182938;23;20495;-88
2021/09/29 17:17:01;;;;;;;2.87;1.40;;;11.50;99.90;;;;;;6184218;23;20124;-86
2021/09/29 17:19:48;;;;;;;2.30;1.20;;;11.40;99.90;;;;;;6181863;23;20029;-88
2021/09/29 17:22:36;;;;;;;2.40;1.30;;;11.40;99.90;;;;;;6181606;23;20028;-86
2021/09/29 17:25:24;;;;;;;2.97;1.25;;;11.40;99.90;;;;;;6184129;23;20037;-87
2021/09/29 17:28:16;;;;;;;3.10;1.55;;;11.30;99.90;;;;;;6159870;23;20126;-87
2021/09/29 17:31:08;;;;;;;3.25;1.60;;;11.30;99.90;;;;;;6162675;23;20336;-92
2021/09/29 17:54:46;;;;;;;1.58;1.48;;;11.20;99.90;;;;;;6183656;23;20032;-90
2021/09/29 17:57:35;;;;;;;2.22;1.23;;;11.10;99.90;;;;;;6184358;23;20092;-91
2021/09/29 18:00:22;;;;;;;1.70;1.42;;;11.10;99.90;;;;;;6184552;23;20032;-92
2021/09/29 18:03:15;;;;;;;2.38;1.77;;;11.10;99.90;;;;;;6182434;23;20087;-91
2021/09/29 18:08:55;;;;;;;3.53;1.55;;;11.10;99.90;;;;;;6184905;23;20021;-91
2021/09/29 18:11:42;;;;;;;4.50;1.63;;;11.10;99.90;;;;;;6182405;23;20021;-90
2021/09/29 18:14:32;;;;;;;3.10;1.60;;;11.10;99.90;;;;;;6181811;23;20041;-91
2021/09/29 18:17:19;;;;;;;4.43;1.40;;;11.10;99.90;;;;;;6184621;23;20025;-91
2021/09/29 18:20:08;;;;;;;2.08;1.20;;;11.00;99.90;;;;;;6181985;23;20028;-90
2021/09/29 18:22:55;;;;;;;3.20;1.15;;;11.00;99.90;;;;;;6181547;23;20064;-89
2021/09/29 18:25:42;;;;;;;2.85;0.90;;;11.00;99.90;;;;;;6183609;23;20277;-91
2021/09/29 18:28:32;;;;;;;2.80;1.35;;;11.00;99.90;;;;;;6180746;23;20036;-91
2021/09/29 18:31:21;;;;;;;1.83;1.30;;;10.90;99.90;;;;;;6183752;23;20048;-89
2021/09/29 18:34:12;;;;;;;2.75;1.20;;;10.80;99.90;;;;;;6186439;23;20282;-90
2021/09/29 18:37:05;;;;;;;2.08;1.58;;;10.70;99.90;;;;;;6185896;23;20392;-93
2021/09/29 18:39:56;;;;;;;2.17;1.40;;;10.70;99.90;;;;;;6183926;23;20056;-91
2021/09/29 18:42:43;;;;;;;3.53;1.50;;;10.70;99.90;;;;;;6188032;23;20061;-92
2021/09/29 18:45:31;;;;;;;1.95;1.20;;;10.80;99.90;;;;;;6187119;23;20328;-91
2021/09/29 18:48:19;;;;;;;3.08;1.10;;;10.80;99.90;;;;;;6184578;23;20428;-93
2021/09/29 18:51:13;;;;;;;1.50;1.40;;;10.90;99.90;;;;;;6186136;23;20091;-92
2021/09/29 18:54:19;;;;;;;1.75;1.35;;;10.90;99.90;;;;;;6187428;23;20099;-91
2021/09/29 19:09:32;;;;;;;3.90;2.38;;;10.40;99.90;;;;;;6182718;23;20025;-90
2021/09/29 19:12:19;;;;;;;2.53;2.33;;;10.30;99.90;;;;;;6184015;23;20021;-90
2021/09/29 19:15:07;;;;;;;5.05;2.40;;;10.20;99.90;;;;;;6186280;23;20028;-90
2021/09/29 19:17:54;;;;;;;4.47;2.60;;;10.00;99.90;;;;;;6185811;23;20024;-91
2021/09/29 19:20:44;;;;;;;5.65;2.90;;;10.00;99.90;;;;;;6187947;23;20048;-91
2021/09/29 19:23:34;;;;;;;5.25;3.00;;;9.90;99.90;;;;;;6183897;23;20095;-89
2021/09/29 19:26:27;;;;;;;9.93;4.00;;;9.80;99.90;;;;;;6183227;23;20064;-89
2021/09/29 19:29:14;;;;;;;4.10;3.35;;;9.70;99.90;;;;;;6187202;23;20017;-89
2021/09/29 19:32:03;;;;;;;7.15;2.88;;;9.60;99.90;;;;;;6185696;23;20444;-89
2021/09/29 19:34:52;;;;;;;5.07;2.40;;;9.50;99.90;;;;;;6185799;23;20032;-89
2021/09/29 19:37:40;;;;;;;4.22;1.95;;;9.50;99.90;;;;;;6186387;23;20029;-89
2021/09/29 19:40:27;;;;;;;4.40;2.13;;;9.40;99.90;;;;;;6192101;23;20522;-89
2021/09/29 19:43:14;;;;;;;3.83;1.77;;;9.30;99.90;;;;;;6194752;23;20021;-88
2021/09/29 19:46:05;;;;;;;5.18;1.75;;;9.30;99.90;;;;;;6189792;23;20034;-88
2021/09/29 19:49:05;;;;;;;3.47;1.35;;;9.20;99.90;;;;;;6190529;23;20117;-89
2021/09/29 20:10:17;;;;;;;5.13;1.58;;;8.90;99.90;;;;;;6183930;23;20029;-92
2021/09/29 20:13:05;;;;;;;6.35;1.50;;;8.80;99.90;;;;;;6185791;23;20036;-91
2021/09/29 20:15:52;;;;;;;5.70;1.40;;;8.70;99.90;;;;;;6184033;23;20033;-89
2021/09/29 20:18:47;;;;;;;4.35;1.10;;;8.70;99.90;;;;;;6186267;23;20075;-90
2021/09/29 20:21:34;;;;;;;4.35;1.23;;;8.70;99.90;;;;;;6162065;23;20025;-89
2021/09/29 20:24:22;;;;;;;4.65;1.77;;;8.70;99.90;;;;;;6164668;23;20440;-90
2021/09/29 20:27:09;;;;;;;3.33;1.35;;;8.70;99.90;;;;;;6185906;23;20028;-89
2021/09/29 20:29:56;;;;;;;4.60;1.40;;;8.70;99.90;;;;;;6167793;23;20025;-89
2021/09/29 20:32:49;;;;;;;5.60;1.60;;;8.70;99.90;;;;;;6186016;23;20035;-90
2021/09/29 20:35:55;;;;;;;5.22;1.98;;;8.70;99.90;;;;;;6182223;23;20039;-87
2021/09/29 20:44:54;;;;;;;5.75;1.80;;;8.60;99.90;;;;;;6184191;23;20029;-88